Dafter, Michigan
Current Conditions -  °F | °C
As of 5:15 PM on Tuesday 25 Nov 2014 (Local Time) from KCIU Reporting Station
Overcast Overcast  
Wind Chill: 16°   Ceiling: 4000
Heat Index: 25°   Visibility: 10mi
Dew Point: 25°   Wind: 8mph
Humidity: 100%   Direction: 270°W
Pressure: 29.97"   Gusts: NA
Location:  46.36°N, 84.43°W
Report Text: KCIU 252215Z AUTO 27007KT 10SM OVC040 M04/M04 A2997 RMK AO1
Loading
Personal Weather Stations






























Interactive Weather Map New forecast layout! Learn more

10-Day Weather Forecast

Advertisements
Track Severe Weather on mobile